createdAt,value
2023-04-27T00:02:20.334Z,3.40
2023-04-27T00:04:48.276Z,4.20
2023-04-27T00:07:15.746Z,1.23
2023-04-27T00:09:43.298Z,2.42
2023-04-27T00:12:10.597Z,2.42
2023-04-27T00:14:38.219Z,2.15
2023-04-27T00:17:05.499Z,6.85
2023-04-27T00:19:33.052Z,5.32
2023-04-27T00:22:00.641Z,2.65
2023-04-27T00:24:28.293Z,7.35
2023-04-27T00:26:55.617Z,1.85
2023-04-27T00:29:23.206Z,3.05
2023-04-27T00:31:50.604Z,8.23
2023-04-27T00:34:18.274Z,1.73
2023-04-27T00:36:45.585Z,6.22
2023-04-27T00:39:13.303Z,2.45
2023-04-27T00:41:41.051Z,2.22
2023-04-27T00:44:08.985Z,3.85
2023-04-27T00:46:36.943Z,5.72
2023-04-27T00:49:05.091Z,3.70
2023-04-27T00:51:32.415Z,3.42
2023-04-27T00:54:01.005Z,2.17
2023-04-27T00:56:28.352Z,6.00
2023-04-27T00:58:55.996Z,1.95
2023-04-27T01:01:23.961Z,3.28
2023-04-27T01:03:51.844Z,4.88
2023-04-27T01:06:19.376Z,4.53
2023-04-27T01:08:47.002Z,2.30
2023-04-27T01:11:14.326Z,2.85
2023-04-27T01:13:41.945Z,4.65
2023-04-27T01:16:09.240Z,3.70
2023-04-27T01:18:37.785Z,1.05
2023-04-27T01:21:05.159Z,1.48
2023-04-27T01:23:32.698Z,10.30
2023-04-27T01:26:00.004Z,2.75
2023-04-27T01:28:27.959Z,3.90
2023-04-27T01:30:55.502Z,5.32
2023-04-27T01:33:23.627Z,0.55
2023-04-27T01:35:51.569Z,0.85
2023-04-27T01:38:19.432Z,1.95
2023-04-27T01:40:46.721Z,10.73
2023-04-27T01:43:14.285Z,4.22
2023-04-27T01:45:41.635Z,6.47
2023-04-27T01:48:09.248Z,3.58
2023-04-27T01:50:36.554Z,0.65
2023-04-27T01:53:04.129Z,3.50
2023-04-27T01:55:31.443Z,1.95
2023-04-27T01:57:59.012Z,4.07
2023-04-27T02:00:26.375Z,4.15
2023-04-27T02:02:54.232Z,3.03
2023-04-27T02:05:21.680Z,4.05
2023-04-27T02:07:49.507Z,8.48
2023-04-27T02:10:16.876Z,1.05
2023-04-27T02:12:44.441Z,3.92
2023-04-27T02:15:11.736Z,3.65
2023-04-27T02:17:39.595Z,4.43
2023-04-27T02:20:07.560Z,1.08
2023-04-27T02:22:35.616Z,4.50
2023-04-27T02:25:03.042Z,9.00
2023-04-27T02:27:30.928Z,10.23
2023-04-27T02:29:58.695Z,2.80
2023-04-27T02:32:27.165Z,0.70
2023-04-27T02:34:56.671Z,3.13
2023-04-27T02:37:24.267Z,6.15
2023-04-27T02:39:51.682Z,2.42
2023-04-27T02:42:19.396Z,3.90
2023-04-27T02:44:46.673Z,6.72
2023-04-27T02:47:14.227Z,4.20
2023-04-27T02:49:41.520Z,3.95
2023-04-27T02:52:09.369Z,5.47
2023-04-27T02:54:36.655Z,3.00
2023-04-27T02:57:04.545Z,3.88
2023-04-27T02:59:31.799Z,2.25
2023-04-27T03:01:59.339Z,2.35
2023-04-27T03:04:28.061Z,12.68
2023-04-27T03:06:56.393Z,4.13
2023-04-27T03:09:23.796Z,5.72
2023-04-27T03:11:51.392Z,2.65
2023-04-27T03:14:18.715Z,8.68
2023-04-27T03:16:46.412Z,4.38
2023-04-27T03:19:13.898Z,2.83
2023-04-27T03:21:41.897Z,6.38
2023-04-27T03:24:09.217Z,6.15
2023-04-27T03:26:36.773Z,3.65
2023-04-27T03:29:04.044Z,3.72
2023-04-27T03:31:31.670Z,3.38
2023-04-27T03:33:59.076Z,3.15
2023-04-27T03:36:27.083Z,6.15
2023-04-27T03:38:54.362Z,1.65
2023-04-27T03:41:22.068Z,1.60
2023-04-27T03:43:50.793Z,1.00
2023-04-27T03:46:18.488Z,12.63
2023-04-27T03:48:47.107Z,4.70
2023-04-27T03:51:15.068Z,1.58
2023-04-27T03:53:42.361Z,9.45
2023-04-27T03:56:10.108Z,5.90
2023-04-27T03:58:37.392Z,4.60
2023-04-27T04:01:05.042Z,1.02
2023-04-27T04:03:32.446Z,5.63
2023-04-27T04:06:00.122Z,4.68
2023-04-27T04:08:27.455Z,1.60
2023-04-27T04:10:55.024Z,2.70
2023-04-27T04:13:22.308Z,5.65
2023-04-27T04:15:50.071Z,8.60
2023-04-27T04:18:17.351Z,1.15
2023-04-27T04:20:44.915Z,2.55
2023-04-27T04:23:13.315Z,2.58
2023-04-27T04:25:41.645Z,7.78
2023-04-27T04:28:08.919Z,5.20
2023-04-27T04:30:36.518Z,1.85
2023-04-27T04:33:03.956Z,1.88
2023-04-27T04:35:34.602Z,6.40
2023-04-27T04:38:01.925Z,5.18
2023-04-27T04:40:29.819Z,2.45
2023-04-27T04:42:57.065Z,5.80
2023-04-27T04:45:24.679Z,10.80
2023-04-27T04:47:54.374Z,6.32
2023-04-27T04:50:23.356Z,7.97
2023-04-27T04:52:51.371Z,3.92
2023-04-27T04:55:19.258Z,6.38
2023-04-27T04:57:46.597Z,7.78
2023-04-27T05:00:14.519Z,6.22
2023-04-27T05:02:42.706Z,3.15
2023-04-27T05:05:10.903Z,5.93
2023-04-27T05:07:38.217Z,7.18
2023-04-27T05:10:06.125Z,5.15
2023-04-27T05:12:33.460Z,3.53
2023-04-27T05:15:01.062Z,2.97
2023-04-27T05:17:28.415Z,3.55
2023-04-27T05:19:56.420Z,2.10
2023-04-27T05:22:23.764Z,5.72
2023-04-27T05:24:51.906Z,5.20
2023-04-27T05:27:19.300Z,5.40
2023-04-27T05:29:46.904Z,4.78
2023-04-27T05:32:14.271Z,3.22
2023-04-27T05:34:45.360Z,2.75
2023-04-27T05:37:14.193Z,4.60
2023-04-27T05:39:42.315Z,4.40
2023-04-27T05:42:09.592Z,7.00
2023-04-27T05:44:37.164Z,5.40
2023-04-27T05:47:04.558Z,4.60
2023-04-27T05:49:32.112Z,3.92
2023-04-27T05:51:59.400Z,2.35
2023-04-27T05:54:27.553Z,3.45
2023-04-27T05:56:55.051Z,9.52
2023-04-27T05:59:22.710Z,8.50
2023-04-27T06:01:50.132Z,3.90
2023-04-27T06:04:17.914Z,2.35
2023-04-27T06:06:45.571Z,2.33
2023-04-27T06:09:14.753Z,7.45
2023-04-27T06:11:42.428Z,2.20
2023-04-27T06:14:10.161Z,3.30
2023-04-27T06:16:37.424Z,2.75
2023-04-27T06:19:05.027Z,1.88
2023-04-27T06:21:35.482Z,3.60
2023-04-27T06:24:03.111Z,7.43
2023-04-27T06:26:30.421Z,3.40
2023-04-27T06:28:58.284Z,6.95
2023-04-27T06:31:26.741Z,3.53
2023-04-27T06:33:54.428Z,5.93
2023-04-27T06:36:21.865Z,1.30
2023-04-27T06:38:49.479Z,7.70
2023-04-27T06:41:16.821Z,1.10
2023-04-27T06:43:44.393Z,5.97
2023-04-27T06:46:11.694Z,1.63
2023-04-27T06:48:39.307Z,4.32
2023-04-27T06:51:06.612Z,1.23
2023-04-27T06:53:34.608Z,1.98
2023-04-27T06:56:02.426Z,8.75
2023-04-27T06:58:29.974Z,1.38
2023-04-27T07:00:57.292Z,4.85
2023-04-27T07:03:24.963Z,7.15
2023-04-27T07:05:53.107Z,5.28
2023-04-27T07:08:20.917Z,1.50
2023-04-27T07:10:48.221Z,1.55
2023-04-27T07:13:16.098Z,9.65
2023-04-27T07:15:43.439Z,7.25
2023-04-27T07:18:12.153Z,3.47
2023-04-27T07:20:39.482Z,9.45
2023-04-27T07:23:07.386Z,7.00
2023-04-27T07:25:35.296Z,3.67
2023-04-27T07:28:02.890Z,3.42
2023-04-27T07:30:30.898Z,8.85
2023-04-27T07:32:58.786Z,5.40
2023-04-27T07:35:26.371Z,4.43
2023-04-27T07:37:53.934Z,1.85
2023-04-27T07:40:24.042Z,5.45
2023-04-27T07:42:51.611Z,2.30
2023-04-27T07:45:18.929Z,12.07
2023-04-27T07:47:46.674Z,2.88
2023-04-27T07:50:16.201Z,7.00
2023-04-27T07:52:43.799Z,4.72
2023-04-27T07:55:11.067Z,2.17
2023-04-27T07:57:38.688Z,1.92
2023-04-27T08:00:08.998Z,2.65
2023-04-27T08:02:36.845Z,1.92
2023-04-27T08:05:05.059Z,7.95
2023-04-27T08:07:36.082Z,5.22
2023-04-27T08:10:07.983Z,5.78
2023-04-27T08:12:35.765Z,2.47
2023-04-27T08:15:03.263Z,2.03
2023-04-27T08:17:30.551Z,1.13
2023-04-27T08:19:58.117Z,1.35
2023-04-27T08:22:25.598Z,4.68
2023-04-27T08:24:53.127Z,7.95
2023-04-27T08:27:20.424Z,1.60
2023-04-27T08:29:48.521Z,1.25
2023-04-27T08:32:16.318Z,3.15
2023-04-27T08:34:45.710Z,2.95
2023-04-27T08:37:13.078Z,3.15
2023-04-27T08:39:40.997Z,2.53
2023-04-27T08:42:14.782Z,2.88
2023-04-27T08:44:42.964Z,1.10
2023-04-27T08:47:10.975Z,2.58
2023-04-27T08:49:41.298Z,5.05
2023-04-27T08:52:12.737Z,1.02
2023-04-27T08:54:40.371Z,7.03
2023-04-27T08:57:11.837Z,2.47
2023-04-27T08:59:44.625Z,6.35
2023-04-27T09:02:21.504Z,7.33
2023-04-27T09:04:51.002Z,3.97
2023-04-27T09:07:19.084Z,5.38
2023-04-27T09:09:48.404Z,3.05
2023-04-27T09:12:15.892Z,2.50
2023-04-27T09:14:44.112Z,1.95
2023-04-27T09:17:11.517Z,3.83
2023-04-27T09:19:39.214Z,2.85
2023-04-27T09:22:07.757Z,2.60
2023-04-27T09:24:36.218Z,5.10
2023-04-27T09:27:03.534Z,7.43
2023-04-27T09:29:37.825Z,1.80
2023-04-27T09:32:19.122Z,4.78
2023-04-27T09:34:46.788Z,4.95
2023-04-27T09:37:14.997Z,1.02
2023-04-27T09:39:42.872Z,1.55
2023-04-27T09:42:10.685Z,1.90
2023-04-27T09:44:38.315Z,1.65
2023-04-27T09:47:05.975Z,2.63
2023-04-27T09:49:35.858Z,5.88
2023-04-27T09:52:03.293Z,3.30
2023-04-27T09:54:32.509Z,2.38
2023-04-27T09:57:11.427Z,6.07
2023-04-27T09:59:59.312Z,1.45
2023-04-27T10:02:29.488Z,4.50
2023-04-27T10:05:03.468Z,1.52
2023-04-27T10:07:31.389Z,4.43
2023-04-27T10:10:02.515Z,1.20
2023-04-27T10:12:38.949Z,6.30
2023-04-27T10:15:14.215Z,6.00
2023-04-27T10:17:48.996Z,0.75
2023-04-27T10:20:17.814Z,3.30
2023-04-27T10:22:50.127Z,2.50
2023-04-27T10:25:28.222Z,2.60
2023-04-27T10:27:55.663Z,1.85
2023-04-27T10:30:24.371Z,6.72
2023-04-27T10:32:58.979Z,2.78
2023-04-27T10:35:37.357Z,4.95
2023-04-27T10:38:18.575Z,2.45
2023-04-27T10:40:46.874Z,5.22
2023-04-27T10:43:15.101Z,1.85
2023-04-27T10:45:43.682Z,2.55
2023-04-27T10:48:15.635Z,4.80
2023-04-27T10:50:44.865Z,11.00
2023-04-27T10:53:12.309Z,11.45
2023-04-27T10:55:39.982Z,5.68
2023-04-27T10:58:07.374Z,4.32
2023-04-27T11:00:41.571Z,5.97
2023-04-27T11:03:15.863Z,9.35
2023-04-27T11:05:45.014Z,13.27
2023-04-27T11:08:19.282Z,2.28
2023-04-27T11:10:47.377Z,0.50
2023-04-27T11:13:15.686Z,6.05
2023-04-27T11:15:52.267Z,4.78
2023-04-27T11:18:21.093Z,3.72
2023-04-27T11:20:50.486Z,14.77
2023-04-27T11:23:36.743Z,9.70
2023-04-27T11:26:17.641Z,1.33
2023-04-27T11:28:46.125Z,8.07
2023-04-27T11:31:13.788Z,20.30
2023-04-27T11:33:51.772Z,8.05
2023-04-27T11:36:20.001Z,1.08
2023-04-27T11:38:47.456Z,2.83
2023-04-27T11:41:16.050Z,0.98
2023-04-27T11:43:49.631Z,0.93
2023-04-27T11:46:21.440Z,2.70
2023-04-27T11:48:48.852Z,1.70
2023-04-27T11:51:16.556Z,2.17
2023-04-27T11:53:48.712Z,0.93
2023-04-27T11:56:16.650Z,3.10
2023-04-27T11:58:46.404Z,1.95
2023-04-27T12:01:15.509Z,0.52
2023-04-27T12:03:44.108Z,3.85
2023-04-27T12:06:31.820Z,1.83
2023-04-27T12:08:59.451Z,1.25
2023-04-27T12:11:30.447Z,1.55
2023-04-27T12:13:57.881Z,1.55
2023-04-27T12:16:25.831Z,3.22
2023-04-27T12:18:53.337Z,6.45
2023-04-27T12:21:21.364Z,2.95
2023-04-27T12:23:48.726Z,4.13
2023-04-27T12:26:16.366Z,5.65
2023-04-27T12:28:43.814Z,2.42
2023-04-27T12:31:14.385Z,1.98
2023-04-27T12:33:41.754Z,1.80
2023-04-27T12:36:09.484Z,4.28
2023-04-27T12:38:37.158Z,2.67
2023-04-27T12:41:04.932Z,4.25
2023-04-27T12:43:32.413Z,6.20
2023-04-27T12:46:00.061Z,4.90
2023-04-27T12:48:27.600Z,3.33
2023-04-27T12:50:55.562Z,1.35
2023-04-27T12:53:23.015Z,3.72
2023-04-27T12:55:50.893Z,2.80
2023-04-27T12:58:18.233Z,1.55
2023-04-27T13:00:46.460Z,3.72
2023-04-27T13:03:14.226Z,4.63
2023-04-27T13:05:41.996Z,1.45
2023-04-27T13:08:09.391Z,2.90
2023-04-27T13:10:37.258Z,8.27
2023-04-27T13:13:04.698Z,6.40
2023-04-27T13:15:32.633Z,9.80
2023-04-27T13:18:00.222Z,6.88
2023-04-27T13:20:28.126Z,5.07
2023-04-27T13:22:55.480Z,3.78
2023-04-27T13:25:23.649Z,5.57
2023-04-27T13:27:51.701Z,1.88
2023-04-27T13:30:19.383Z,4.78
2023-04-27T13:32:46.834Z,1.13
2023-04-27T13:35:14.495Z,3.03
2023-04-27T13:37:42.357Z,13.82
2023-04-27T13:40:13.252Z,5.32
2023-04-27T13:42:40.841Z,4.63
2023-04-27T13:45:08.666Z,0.85
2023-04-27T13:47:39.320Z,3.90
2023-04-27T13:50:07.802Z,4.40
2023-04-27T13:52:35.935Z,0.82
2023-04-27T13:55:04.276Z,7.40
2023-04-27T13:57:31.697Z,3.70
2023-04-27T14:00:02.363Z,2.20
2023-04-27T14:02:30.414Z,4.90
2023-04-27T14:04:58.726Z,3.05
2023-04-27T14:07:26.701Z,1.98
2023-04-27T14:09:54.487Z,0.80
2023-04-27T14:12:21.893Z,5.93
2023-04-27T14:14:49.516Z,2.65
2023-04-27T14:17:16.971Z,3.40
2023-04-27T14:19:44.627Z,8.05
2023-04-27T14:22:12.034Z,2.88
2023-04-27T14:24:39.718Z,3.45
2023-04-27T14:27:07.212Z,4.50
2023-04-27T14:29:35.114Z,3.25
2023-04-27T14:32:02.433Z,1.88
2023-04-27T14:34:30.154Z,4.28
2023-04-27T14:36:57.497Z,9.82
2023-04-27T14:39:25.136Z,4.72
2023-04-27T14:41:52.564Z,2.15
2023-04-27T14:44:20.470Z,4.28
2023-04-27T14:46:47.852Z,10.65
2023-04-27T14:49:15.851Z,6.88
2023-04-27T14:51:43.725Z,6.50
2023-04-27T14:54:11.888Z,7.97
2023-04-27T14:56:39.264Z,5.72
2023-04-27T14:59:07.243Z,11.40
2023-04-27T15:01:34.641Z,2.45
2023-04-27T15:04:02.579Z,6.20
2023-04-27T15:06:30.433Z,3.90
2023-04-27T15:08:58.345Z,12.95
2023-04-27T15:11:25.725Z,5.15
2023-04-27T15:13:53.340Z,2.72
2023-04-27T15:16:20.873Z,4.00
2023-04-27T15:18:48.584Z,1.35
2023-04-27T15:21:16.022Z,1.02
2023-04-27T15:23:43.639Z,5.13
2023-04-27T15:26:11.042Z,2.65
2023-04-27T15:28:38.726Z,4.20
2023-04-27T15:31:06.442Z,5.57
2023-04-27T15:33:34.049Z,1.05
2023-04-27T15:36:01.397Z,9.77
2023-04-27T15:38:29.068Z,6.07
2023-04-27T15:40:56.385Z,3.97
2023-04-27T15:43:24.474Z,2.22
2023-04-27T15:45:51.960Z,2.95
2023-04-27T15:48:19.586Z,0.90
2023-04-27T15:50:47.591Z,2.47
2023-04-27T15:53:15.400Z,2.17
2023-04-27T15:55:43.245Z,1.40
2023-04-27T15:58:10.904Z,4.20
2023-04-27T16:00:38.442Z,2.97
2023-04-27T16:03:09.323Z,3.25
2023-04-27T16:05:38.318Z,2.30
2023-04-27T16:08:06.104Z,2.25
2023-04-27T16:10:33.571Z,4.13
2023-04-27T16:13:01.229Z,2.35
2023-04-27T16:15:28.652Z,2.63
2023-04-27T16:17:56.284Z,1.17
2023-04-27T16:20:25.372Z,5.15
2023-04-27T16:22:53.051Z,2.53
2023-04-27T16:25:20.415Z,4.55
2023-04-27T16:27:49.071Z,2.80
2023-04-27T16:30:16.502Z,3.30
2023-04-27T16:32:44.230Z,10.00
2023-04-27T16:35:11.586Z,0.75
2023-04-27T16:37:39.180Z,1.48
2023-04-27T16:40:08.138Z,2.10
2023-04-27T16:42:35.950Z,2.17
2023-04-27T16:45:03.410Z,1.30
2023-04-27T16:47:31.580Z,1.13
2023-04-27T16:49:59.008Z,2.50
2023-04-27T16:52:26.718Z,2.28
2023-04-27T16:54:54.085Z,2.05
2023-04-27T16:57:21.793Z,2.40
2023-04-27T16:59:49.153Z,2.35
2023-04-27T17:02:24.406Z,7.57
2023-04-27T17:04:53.762Z,8.27
2023-04-27T17:07:21.467Z,3.97
2023-04-27T17:09:48.792Z,3.38
2023-04-27T17:12:16.772Z,4.35
2023-04-27T17:14:44.074Z,4.32
2023-04-27T17:17:12.205Z,9.38
2023-04-27T17:19:39.694Z,12.45
2023-04-27T17:22:10.674Z,7.78
2023-04-27T17:24:37.951Z,6.97
2023-04-27T17:27:05.537Z,4.97
2023-04-27T17:29:32.879Z,6.65
2023-04-27T17:32:00.532Z,9.73
2023-04-27T17:34:27.804Z,9.60
2023-04-27T17:36:55.492Z,9.45
2023-04-27T17:39:24.976Z,12.93
2023-04-27T17:41:52.637Z,4.85
2023-04-27T17:44:19.944Z,10.07
2023-04-27T17:46:51.400Z,15.88
2023-04-27T17:49:19.579Z,9.65
2023-04-27T17:51:47.651Z,10.18
2023-04-27T17:54:14.952Z,26.65
2023-04-27T17:56:42.832Z,12.98
2023-04-27T17:59:10.325Z,11.07
2023-04-27T18:01:37.939Z,5.68
2023-04-27T18:04:07.065Z,4.57
2023-04-27T18:06:35.166Z,5.20
2023-04-27T18:09:02.696Z,7.25
2023-04-27T18:11:30.560Z,8.20
2023-04-27T18:14:00.885Z,6.90
2023-04-27T18:16:28.457Z,11.90
2023-04-27T18:18:55.764Z,6.60
2023-04-27T18:21:23.505Z,4.47
2023-04-27T18:23:50.868Z,17.58
2023-04-27T18:26:18.513Z,51.45
2023-04-27T18:28:45.822Z,23.48
2023-04-27T18:31:17.317Z,10.63
2023-04-27T18:33:45.347Z,22.58
2023-04-27T18:36:13.152Z,6.55
2023-04-27T18:38:40.577Z,11.30
2023-04-27T18:41:08.363Z,9.18
2023-04-27T18:43:36.687Z,8.55
2023-04-27T18:46:04.875Z,29.48
2023-04-27T18:48:32.628Z,12.13
2023-04-27T18:51:00.358Z,7.68
2023-04-27T18:53:28.351Z,8.48
2023-04-27T18:55:56.073Z,9.48
2023-04-27T18:58:23.506Z,10.95
2023-04-27T19:00:51.651Z,11.18
2023-04-27T19:03:19.406Z,10.48
2023-04-27T19:05:47.292Z,9.88
2023-04-27T19:08:14.549Z,15.45
2023-04-27T19:10:42.218Z,11.80
2023-04-27T19:13:10.008Z,16.40
2023-04-27T19:15:37.620Z,14.13
2023-04-27T19:18:10.554Z,11.70
2023-04-27T19:20:40.217Z,13.77
2023-04-27T19:23:09.403Z,12.10
2023-04-27T19:25:37.365Z,13.80
2023-04-27T19:28:05.752Z,15.02
2023-04-27T19:30:33.397Z,21.15
2023-04-27T19:33:00.775Z,9.27
2023-04-27T19:35:28.572Z,32.25
2023-04-27T19:37:55.989Z,48.60
2023-04-27T19:40:23.574Z,24.20
2023-04-27T19:42:51.013Z,45.85
2023-04-27T19:45:18.607Z,23.75
2023-04-27T19:47:46.010Z,37.08
2023-04-27T19:50:13.806Z,48.88
2023-04-27T19:52:41.365Z,25.73
2023-04-27T19:55:09.369Z,19.67
2023-04-27T19:57:36.838Z,26.67
2023-04-27T20:00:11.744Z,23.88
2023-04-27T20:02:39.518Z,15.65
2023-04-27T20:05:07.790Z,7.57
2023-04-27T20:07:35.558Z,3.17
2023-04-27T20:10:04.375Z,7.18
2023-04-27T20:12:51.326Z,6.43
2023-04-27T20:15:19.293Z,18.95
2023-04-27T20:17:46.678Z,34.53
2023-04-27T20:20:14.238Z,25.25
2023-04-27T20:22:41.527Z,33.25
2023-04-27T20:25:09.291Z,31.63
2023-04-27T20:27:36.679Z,25.77
2023-04-27T20:30:04.453Z,29.48
2023-04-27T20:32:31.772Z,18.88
2023-04-27T20:35:01.439Z,15.18
2023-04-27T20:37:29.393Z,22.75
2023-04-27T20:39:57.015Z,16.98
2023-04-27T20:42:24.522Z,16.08
2023-04-27T20:44:54.706Z,15.23
2023-04-27T20:47:22.447Z,18.30
2023-04-27T20:49:50.298Z,21.08
2023-04-27T20:52:17.693Z,22.77
2023-04-27T20:54:45.331Z,17.15
2023-04-27T20:57:14.297Z,9.05
2023-04-27T20:59:42.313Z,8.93
2023-04-27T21:02:09.579Z,7.40
2023-04-27T21:04:37.297Z,8.70
2023-04-27T21:07:04.639Z,10.05
2023-04-27T21:09:32.183Z,6.85
2023-04-27T21:11:59.576Z,12.40
2023-04-27T21:14:27.191Z,7.50
2023-04-27T21:16:54.620Z,18.17
2023-04-27T21:19:22.285Z,8.52
2023-04-27T21:21:49.583Z,6.72
2023-04-27T21:24:17.429Z,9.73
2023-04-27T21:26:44.697Z,10.75
2023-04-27T21:29:12.253Z,11.80
2023-04-27T21:31:39.557Z,15.73
2023-04-27T21:34:08.039Z,15.60
2023-04-27T21:36:35.453Z,20.30
2023-04-27T21:39:03.051Z,12.05
2023-04-27T21:41:30.374Z,23.50
2023-04-27T21:43:58.018Z,22.00
2023-04-27T21:46:25.454Z,11.77
2023-04-27T21:48:53.012Z,16.42
2023-04-27T21:51:20.313Z,10.80
2023-04-27T21:53:47.866Z,10.75
2023-04-27T21:56:15.151Z,10.00
2023-04-27T21:58:42.756Z,13.82
2023-04-27T22:01:11.167Z,13.90
2023-04-27T22:03:38.920Z,16.48
2023-04-27T22:06:07.437Z,19.63
2023-04-27T22:08:35.295Z,61.28
2023-04-27T22:11:02.650Z,42.05
2023-04-27T22:13:30.306Z,31.95
2023-04-27T22:15:57.715Z,21.85
2023-04-27T22:18:25.292Z,17.85
2023-04-27T22:20:54.409Z,33.28
2023-04-27T22:23:21.985Z,26.15
2023-04-27T22:25:49.411Z,24.92
2023-04-27T22:28:16.967Z,25.95
2023-04-27T22:30:44.342Z,21.80
2023-04-27T22:33:12.250Z,13.75
2023-04-27T22:35:39.632Z,26.42
2023-04-27T22:38:07.422Z,19.20
2023-04-27T22:40:34.760Z,21.75
2023-04-27T22:43:02.434Z,15.07
2023-04-27T22:45:29.749Z,12.50
2023-04-27T22:47:57.591Z,16.38
2023-04-27T22:50:24.955Z,14.57
2023-04-27T22:52:53.014Z,16.38
2023-04-27T22:55:20.494Z,19.95
2023-04-27T22:57:49.910Z,19.95
2023-04-27T23:00:17.466Z,14.70
2023-04-27T23:02:45.228Z,15.95
2023-04-27T23:05:12.649Z,13.30
2023-04-27T23:07:41.334Z,11.48
2023-04-27T23:10:08.820Z,11.77
2023-04-27T23:12:37.768Z,14.23
2023-04-27T23:15:05.677Z,32.50
2023-04-27T23:17:33.428Z,5.82
2023-04-27T23:20:02.083Z,7.82
2023-04-27T23:22:29.693Z,8.68
2023-04-27T23:24:57.022Z,7.68
2023-04-27T23:27:25.114Z,11.15
2023-04-27T23:29:52.713Z,7.72
2023-04-27T23:32:20.738Z,9.00
2023-04-27T23:34:48.103Z,9.52
2023-04-27T23:37:15.788Z,1.88
2023-04-27T23:39:43.043Z,4.65
2023-04-27T23:42:10.796Z,2.55
2023-04-27T23:44:38.427Z,2.65
2023-04-27T23:47:06.353Z,1.58
2023-04-27T23:49:33.668Z,6.68
2023-04-27T23:52:01.362Z,2.88
2023-04-27T23:54:34.703Z,4.15
2023-04-27T23:57:02.401Z,6.07
2023-04-27T23:59:33.680Z,5.07
